createdAt,value
2019-05-13T00:00:34.173Z,58.50
2019-05-13T00:03:03.817Z,58.90
2019-05-13T00:05:33.937Z,58.60
2019-05-13T00:08:03.435Z,58.80
2019-05-13T00:10:34.782Z,58.50
2019-05-13T00:13:04.454Z,58.50
2019-05-13T00:15:34.223Z,58.50
2019-05-13T00:18:04.004Z,58.50
2019-05-13T00:20:33.982Z,58.50
2019-05-13T00:23:04.016Z,58.50
2019-05-13T00:25:33.947Z,58.70
2019-05-13T00:28:04.140Z,58.90
2019-05-13T00:30:34.205Z,59.00
2019-05-13T00:33:04.064Z,59.00
2019-05-13T00:35:33.862Z,59.00
2019-05-13T00:38:03.796Z,59.00
2019-05-13T00:40:33.894Z,59.00
2019-05-13T00:43:03.830Z,59.10
2019-05-13T00:45:33.890Z,59.10
2019-05-13T00:48:04.669Z,59.80
2019-05-13T00:50:34.116Z,59.10
2019-05-13T00:53:04.341Z,59.90
2019-05-13T00:55:34.599Z,59.30
2019-05-13T00:58:04.256Z,59.60
2019-05-13T01:00:34.151Z,59.70
2019-05-13T01:03:04.099Z,59.50
2019-05-13T01:05:33.989Z,60.00
2019-05-13T01:08:04.209Z,59.90
2019-05-13T01:10:34.554Z,60.90
2019-05-13T01:13:04.888Z,61.00
2019-05-13T01:15:34.483Z,61.20
2019-05-13T01:18:04.209Z,61.10
2019-05-13T01:20:34.612Z,61.10
2019-05-13T01:23:04.129Z,61.20
2019-05-13T01:25:33.611Z,61.30
2019-05-13T01:28:04.643Z,61.30
2019-05-13T01:30:34.507Z,61.30
2019-05-13T01:33:04.456Z,61.40
2019-05-13T01:35:34.231Z,61.40
2019-05-13T01:38:04.503Z,61.20
2019-05-13T01:40:34.798Z,61.30
2019-05-13T01:43:04.041Z,61.30
2019-05-13T01:45:33.912Z,61.10
2019-05-13T01:48:07.069Z,61.00
2019-05-13T01:50:34.077Z,61.10
2019-05-13T01:53:04.175Z,61.30
2019-05-13T01:55:34.112Z,61.40
2019-05-13T01:58:04.249Z,61.60
2019-05-13T02:00:35.254Z,61.60
2019-05-13T02:03:04.440Z,61.60
2019-05-13T02:05:34.150Z,62.30
2019-05-13T02:08:14.563Z,61.60
2019-05-13T02:10:57.136Z,61.50
2019-05-13T02:13:26.175Z,61.50
2019-05-13T02:15:55.834Z,61.70
2019-05-13T02:18:24.920Z,61.60
2019-05-13T02:20:55.334Z,61.70
2019-05-13T02:23:24.992Z,61.70
2019-05-13T02:25:54.519Z,61.60
2019-05-13T02:28:24.676Z,61.60
2019-05-13T02:30:55.999Z,61.70
2019-05-13T02:33:24.646Z,61.60
2019-05-13T02:35:53.904Z,61.70
2019-05-13T02:38:28.792Z,61.70
2019-05-13T02:40:53.958Z,61.80
2019-05-13T02:43:24.282Z,61.80
2019-05-13T02:45:54.336Z,61.70
2019-05-13T02:48:24.236Z,62.10
2019-05-13T02:50:53.865Z,62.00
2019-05-13T02:53:24.174Z,62.00
2019-05-13T02:55:53.447Z,61.90
2019-05-13T02:58:24.142Z,62.00
2019-05-13T03:00:53.798Z,62.00
2019-05-13T03:03:23.782Z,60.10
2019-05-13T03:05:53.462Z,61.90
2019-05-13T03:08:35.212Z,61.70
2019-05-13T03:10:53.737Z,61.90
2019-05-13T03:13:23.575Z,62.10
2019-05-13T03:16:03.326Z,62.00
2019-05-13T03:18:33.442Z,62.10
2019-05-13T03:21:03.311Z,62.00
2019-05-13T03:23:33.026Z,62.00
2019-05-13T03:26:03.058Z,62.00
2019-05-13T03:28:33.737Z,62.00
2019-05-13T03:31:06.134Z,62.00
2019-05-13T03:33:36.693Z,62.00
2019-05-13T03:36:06.651Z,62.10
2019-05-13T03:38:58.103Z,62.00
2019-05-13T03:41:12.524Z,62.10
2019-05-13T03:43:43.459Z,62.10
2019-05-13T03:46:13.390Z,62.20
2019-05-13T03:48:43.084Z,62.40
2019-05-13T03:51:13.528Z,62.40
2019-05-13T03:53:43.641Z,62.30
2019-05-13T03:56:13.402Z,62.40
2019-05-13T03:58:43.672Z,62.30
2019-05-13T04:01:13.660Z,62.40
2019-05-13T04:03:44.069Z,62.50
2019-05-13T04:06:14.110Z,62.50
2019-05-13T04:08:44.168Z,62.40
2019-05-13T04:11:13.259Z,62.50
2019-05-13T04:13:43.172Z,62.60
2019-05-13T04:16:13.164Z,62.80
2019-05-13T04:18:43.129Z,63.00
2019-05-13T04:21:13.329Z,63.90
2019-05-13T04:23:42.910Z,63.20
2019-05-13T04:26:14.790Z,63.40
2019-05-13T04:28:43.827Z,63.60
2019-05-13T04:31:14.422Z,63.70
2019-05-13T04:33:43.701Z,63.60
2019-05-13T04:36:13.602Z,63.70
2019-05-13T04:38:44.233Z,63.70
2019-05-13T04:41:13.348Z,63.80
2019-05-13T04:43:43.697Z,63.90
2019-05-13T04:46:14.093Z,63.80
2019-05-13T04:48:44.626Z,64.00
2019-05-13T04:51:14.136Z,63.90
2019-05-13T04:53:43.348Z,64.10
2019-05-13T04:56:13.780Z,65.00
2019-05-13T04:58:43.520Z,64.50
2019-05-13T05:02:08.576Z,64.70
2019-05-13T05:04:46.241Z,65.60
2019-05-13T05:07:32.823Z,64.80
2019-05-13T05:10:26.285Z,65.00
2019-05-13T05:13:15.895Z,65.00
2019-05-13T05:16:21.956Z,65.20
2019-05-13T05:19:33.194Z,65.30
2019-05-13T05:22:13.589Z,65.60
2019-05-13T05:24:54.152Z,65.70
2019-05-13T05:27:47.144Z,66.10
2019-05-13T05:30:52.845Z,66.50
2019-05-13T05:33:41.137Z,66.40
2019-05-13T05:36:35.082Z,66.60
2019-05-13T05:39:12.298Z,66.60
2019-05-13T05:41:43.247Z,66.70
2019-05-13T05:44:13.525Z,67.20
2019-05-13T05:46:42.911Z,67.20
2019-05-13T05:49:12.948Z,67.90
2019-05-13T05:51:44.430Z,68.40
2019-05-13T05:54:14.690Z,68.80
2019-05-13T05:56:44.913Z,69.40
2019-05-13T05:59:13.791Z,70.00
2019-05-13T06:01:44.876Z,70.20
2019-05-13T06:04:13.726Z,70.00
2019-05-13T06:06:42.571Z,69.90
2019-05-13T06:09:12.239Z,70.30
2019-05-13T06:11:41.750Z,70.40
2019-05-13T06:14:11.383Z,70.70
2019-05-13T06:16:42.543Z,70.60
2019-05-13T06:19:12.085Z,71.00
2019-05-13T06:21:42.086Z,71.30
2019-05-13T06:24:11.768Z,70.80
2019-05-13T06:26:41.947Z,69.70
2019-05-13T06:29:11.790Z,69.60
2019-05-13T06:31:41.978Z,69.50
2019-05-13T06:34:12.598Z,69.60
2019-05-13T06:36:41.930Z,69.40
2019-05-13T06:39:12.413Z,69.70
2019-05-13T06:41:41.821Z,69.30
2019-05-13T06:44:12.176Z,70.00
2019-05-13T06:46:42.374Z,69.00
2019-05-13T06:49:12.199Z,69.30
2019-05-13T06:51:41.781Z,69.10
2019-05-13T06:54:11.338Z,68.60
2019-05-13T06:56:42.723Z,68.50
2019-05-13T06:59:11.912Z,68.20
2019-05-13T07:01:42.414Z,68.00
2019-05-13T07:04:11.729Z,68.00
2019-05-13T07:06:41.881Z,67.40
2019-05-13T07:09:11.978Z,66.90
2019-05-13T07:11:41.775Z,66.50
2019-05-13T07:14:12.623Z,66.30
2019-05-13T07:16:42.295Z,65.70
2019-05-13T07:19:11.683Z,65.30
2019-05-13T07:21:41.755Z,65.40
2019-05-13T07:24:12.640Z,64.80
2019-05-13T07:26:42.181Z,64.30
2019-05-13T07:29:12.777Z,63.70
2019-05-13T07:31:42.240Z,64.00
2019-05-13T07:34:11.703Z,63.40
2019-05-13T07:36:42.167Z,62.80
2019-05-13T07:39:18.108Z,62.40
2019-05-13T07:41:43.309Z,62.00
2019-05-13T07:44:12.440Z,61.50
2019-05-13T07:46:42.765Z,60.50
2019-05-13T07:49:12.057Z,59.60
2019-05-13T07:51:42.017Z,59.00
2019-05-13T07:54:11.489Z,59.10
2019-05-13T07:56:42.618Z,58.10
2019-05-13T07:59:12.249Z,58.60
2019-05-13T08:01:41.871Z,58.70
2019-05-13T08:04:21.418Z,58.70
2019-05-13T08:06:41.710Z,58.20
2019-05-13T08:09:12.761Z,57.20
2019-05-13T08:12:00.096Z,56.80
2019-05-13T08:14:12.479Z,57.40
2019-05-13T08:16:42.680Z,56.60
2019-05-13T08:19:12.456Z,56.20
2019-05-13T08:21:41.867Z,56.60
2019-05-13T08:24:11.978Z,55.70
2019-05-13T08:26:44.945Z,56.00
2019-05-13T08:29:11.585Z,55.50
2019-05-13T08:31:41.205Z,54.90
2019-05-13T08:34:11.828Z,55.20
2019-05-13T08:36:42.603Z,55.00
2019-05-13T08:39:14.349Z,54.70
2019-05-13T08:41:43.231Z,53.70
2019-05-13T08:44:12.508Z,53.10
2019-05-13T08:46:41.675Z,52.30
2019-05-13T08:49:11.867Z,50.50
2019-05-13T08:51:42.107Z,49.60
2019-05-13T08:54:11.625Z,50.30
2019-05-13T08:56:41.652Z,51.00
2019-05-13T08:59:11.546Z,51.80
2019-05-13T09:01:42.706Z,51.90
2019-05-13T09:04:14.354Z,51.20
2019-05-13T09:06:43.550Z,50.40
2019-05-13T09:09:12.392Z,49.70
2019-05-13T09:11:42.211Z,49.00
2019-05-13T09:14:11.502Z,47.70
2019-05-13T09:16:41.862Z,48.00
2019-05-13T09:19:15.758Z,47.80
2019-05-13T09:21:42.358Z,48.00
2019-05-13T09:24:24.114Z,48.00
2019-05-13T09:26:42.286Z,47.20
2019-05-13T09:29:12.003Z,46.70
2019-05-13T09:31:41.684Z,47.20
2019-05-13T09:34:12.187Z,45.50
2019-05-13T09:36:41.844Z,45.30
2019-05-13T09:39:12.577Z,45.10
2019-05-13T09:41:44.470Z,45.80
2019-05-13T09:44:12.529Z,44.80
2019-05-13T09:46:42.535Z,44.80
2019-05-13T09:49:19.143Z,44.70
2019-05-13T09:51:42.074Z,45.80
2019-05-13T09:54:11.652Z,46.10
2019-05-13T09:56:41.454Z,44.40
2019-05-13T10:01:44.026Z,45.00
2019-05-13T10:04:12.997Z,43.70
2019-05-13T10:06:42.299Z,44.40
2019-05-13T10:09:12.628Z,44.50
2019-05-13T10:11:41.776Z,43.30
2019-05-13T10:14:11.639Z,43.50
2019-05-13T10:16:42.807Z,43.80
2019-05-13T10:19:12.721Z,43.10
2019-05-13T10:21:42.276Z,42.20
2019-05-13T10:24:12.611Z,42.20
2019-05-13T10:26:44.932Z,41.70
2019-05-13T10:29:14.088Z,40.60
2019-05-13T10:31:42.927Z,41.10
2019-05-13T10:34:14.143Z,40.60
2019-05-13T10:36:42.560Z,40.60
2019-05-13T10:39:12.054Z,38.80
2019-05-13T10:41:42.342Z,38.50
2019-05-13T10:44:12.274Z,38.80
2019-05-13T10:46:42.624Z,38.30
2019-05-13T10:49:12.246Z,37.60
2019-05-13T10:51:42.022Z,37.40
2019-05-13T10:54:10.959Z,37.60
2019-05-13T10:56:42.467Z,37.40
2019-05-13T10:59:12.662Z,38.00
2019-05-13T11:01:42.633Z,38.00
2019-05-13T11:04:13.586Z,36.90
2019-05-13T11:06:41.895Z,37.10
2019-05-13T11:09:12.968Z,36.30
2019-05-13T11:11:41.951Z,37.40
2019-05-13T11:14:14.794Z,35.00
2019-05-13T11:16:42.666Z,34.80
2019-05-13T11:19:12.106Z,35.30
2019-05-13T11:21:44.123Z,34.90
2019-05-13T11:24:12.691Z,34.90
2019-05-13T11:26:41.977Z,35.40
2019-05-13T11:29:12.126Z,35.90
2019-05-13T11:31:42.739Z,34.40
2019-05-13T11:34:11.731Z,35.00
2019-05-13T11:36:43.106Z,34.20
2019-05-13T11:39:13.022Z,34.30
2019-05-13T11:41:42.838Z,34.90
2019-05-13T11:44:16.417Z,34.30
2019-05-13T11:46:42.891Z,34.20
2019-05-13T11:49:12.203Z,33.50
2019-05-13T11:51:42.569Z,34.00
2019-05-13T11:54:13.934Z,34.10
2019-05-13T11:56:49.395Z,33.80
2019-05-13T11:59:14.052Z,33.90
2019-05-13T12:01:43.463Z,33.40
2019-05-13T12:04:12.307Z,33.00
2019-05-13T12:09:13.105Z,33.20
2019-05-13T12:11:42.322Z,33.00
2019-05-13T12:14:38.024Z,32.20
2019-05-13T12:16:42.464Z,32.50
2019-05-13T12:19:11.947Z,32.60
2019-05-13T12:21:45.923Z,32.30
2019-05-13T12:24:11.658Z,31.70
2019-05-13T12:26:43.445Z,30.70
2019-05-13T12:29:17.902Z,30.10
2019-05-13T12:31:41.577Z,30.30
2019-05-13T12:34:13.044Z,31.10
2019-05-13T12:36:43.232Z,31.70
2019-05-13T12:39:14.386Z,30.70
2019-05-13T12:41:42.984Z,31.00
2019-05-13T12:44:12.973Z,31.20
2019-05-13T12:46:49.378Z,31.30
2019-05-13T12:49:14.162Z,30.70
2019-05-13T12:51:44.108Z,30.40
2019-05-13T12:54:13.936Z,30.70
2019-05-13T12:56:43.741Z,30.90
2019-05-13T12:59:13.474Z,31.60
2019-05-13T13:01:42.512Z,30.70
2019-05-13T13:04:12.337Z,30.20
2019-05-13T13:06:45.123Z,30.50
2019-05-13T13:09:12.941Z,31.30
2019-05-13T13:11:43.755Z,32.30
2019-05-13T13:14:15.443Z,31.80
2019-05-13T13:16:43.277Z,31.20
2019-05-13T13:19:14.502Z,30.80
2019-05-13T13:21:42.940Z,30.70
2019-05-13T13:24:12.601Z,30.60
2019-05-13T13:26:42.717Z,32.20
2019-05-13T13:29:11.826Z,31.80
2019-05-13T13:31:43.265Z,31.80
2019-05-13T13:34:17.366Z,33.30
2019-05-13T13:36:46.137Z,34.00
2019-05-13T13:39:14.726Z,34.60
2019-05-13T13:41:43.891Z,34.20
2019-05-13T13:44:13.088Z,32.60
2019-05-13T13:49:13.132Z,34.00
2019-05-13T13:51:44.699Z,35.10
2019-05-13T13:54:12.600Z,35.10
2019-05-13T13:56:43.922Z,36.00
2019-05-13T13:59:13.857Z,36.80
2019-05-13T14:01:42.798Z,36.60
2019-05-13T14:04:16.415Z,36.50
2019-05-13T14:06:25.463Z,44.70
2019-05-13T14:07:02.975Z,33.50
2019-05-13T14:07:09.443Z,33.10
2019-05-13T14:09:12.712Z,35.50
2019-05-13T14:11:41.967Z,35.50
2019-05-13T14:14:12.426Z,35.60
2019-05-13T14:16:42.410Z,35.80
2019-05-13T14:19:11.958Z,36.10
2019-05-13T14:21:41.588Z,36.50
2019-05-13T14:24:12.140Z,36.30
2019-05-13T14:26:43.402Z,36.40
2019-05-13T14:29:12.346Z,35.90
2019-05-13T14:31:41.873Z,36.10
2019-05-13T14:34:12.903Z,36.10
2019-05-13T14:36:41.688Z,36.20
2019-05-13T14:39:12.039Z,36.40
2019-05-13T14:41:42.600Z,36.60
2019-05-13T14:44:12.481Z,35.70
2019-05-13T14:46:47.282Z,35.10
2019-05-13T14:49:12.454Z,34.20
2019-05-13T14:51:43.326Z,33.80
2019-05-13T14:54:12.304Z,34.50
2019-05-13T14:56:42.003Z,35.00
2019-05-13T14:59:11.791Z,35.10
2019-05-13T15:01:41.432Z,34.40
2019-05-13T15:04:12.217Z,33.30
2019-05-13T15:06:41.725Z,33.70
2019-05-13T15:09:12.667Z,33.80
2019-05-13T15:11:52.555Z,33.80
2019-05-13T15:14:21.978Z,33.70
2019-05-13T15:17:02.196Z,33.30
2019-05-13T15:19:31.734Z,33.90
2019-05-13T15:22:04.140Z,33.70
2019-05-13T15:24:41.752Z,34.00
2019-05-13T15:27:10.686Z,34.10
2019-05-13T15:29:41.617Z,33.40
2019-05-13T15:32:10.166Z,34.00
2019-05-13T15:34:38.978Z,34.40
2019-05-13T15:37:07.750Z,33.50
2019-05-13T15:39:36.515Z,33.50
2019-05-13T15:42:05.424Z,33.50
2019-05-13T15:44:35.550Z,33.20
2019-05-13T15:47:22.221Z,30.00
2019-05-13T15:49:35.007Z,32.50
2019-05-13T15:52:03.757Z,32.00
2019-05-13T15:54:32.864Z,31.80
2019-05-13T15:57:02.375Z,32.20
2019-05-13T15:59:31.441Z,31.70
2019-05-13T16:02:02.066Z,32.30
2019-05-13T16:04:30.835Z,31.60
2019-05-13T16:07:01.673Z,31.40
2019-05-13T16:09:31.417Z,31.40
2019-05-13T16:12:01.551Z,31.40
2019-05-13T16:14:36.124Z,31.30
2019-05-13T16:17:04.960Z,31.40
2019-05-13T16:19:35.030Z,31.40
2019-05-13T16:22:06.034Z,31.00
2019-05-13T16:24:34.674Z,30.60
2019-05-13T16:27:03.522Z,30.40
2019-05-13T16:29:32.300Z,30.90
2019-05-13T16:32:01.651Z,31.00
2019-05-13T16:34:31.877Z,30.10
2019-05-13T16:37:02.336Z,30.20
2019-05-13T16:39:32.064Z,30.30
2019-05-13T16:42:00.968Z,30.20
2019-05-13T16:44:31.883Z,29.80
2019-05-13T16:47:01.479Z,29.90
2019-05-13T16:49:31.831Z,29.80
2019-05-13T16:52:02.521Z,29.70
2019-05-13T16:54:32.835Z,30.00
2019-05-13T16:57:01.961Z,30.40
2019-05-13T16:59:34.718Z,31.20
2019-05-13T17:02:03.616Z,31.10
2019-05-13T17:04:32.446Z,32.20
2019-05-13T17:07:01.648Z,32.50
2019-05-13T17:09:32.395Z,32.90
2019-05-13T17:12:01.416Z,33.40
2019-05-13T17:14:36.275Z,33.80
2019-05-13T17:17:05.141Z,33.80
2019-05-13T17:19:33.960Z,35.10
2019-05-13T17:22:02.756Z,35.00
2019-05-13T17:24:31.997Z,35.20
2019-05-13T17:27:02.067Z,36.00
2019-05-13T17:29:31.833Z,36.30
2019-05-13T17:32:02.409Z,36.50
2019-05-13T17:34:31.806Z,36.70
2019-05-13T17:37:02.770Z,37.00
2019-05-13T17:39:32.249Z,37.30
2019-05-13T17:42:03.132Z,37.50
2019-05-13T17:44:32.168Z,37.60
2019-05-13T17:47:01.749Z,37.70
2019-05-13T17:49:31.863Z,38.00
2019-05-13T17:52:02.528Z,38.00
2019-05-13T17:54:31.971Z,38.20
2019-05-13T17:57:01.943Z,38.10
2019-05-13T17:59:31.614Z,38.30
2019-05-13T18:02:02.575Z,38.30
2019-05-13T18:04:31.577Z,38.50
2019-05-13T18:07:01.709Z,38.50
2019-05-13T18:09:31.823Z,38.70
2019-05-13T18:12:02.432Z,38.60
2019-05-13T18:14:31.340Z,38.50
2019-05-13T18:17:02.129Z,38.60
2019-05-13T18:19:31.684Z,38.80
2019-05-13T18:22:02.273Z,38.70
2019-05-13T18:24:32.020Z,38.80
2019-05-13T18:27:01.480Z,38.90
2019-05-13T18:29:31.631Z,38.90
2019-05-13T18:32:02.007Z,39.10
2019-05-13T18:34:32.179Z,39.90
2019-05-13T18:37:02.485Z,39.50
2019-05-13T18:39:33.814Z,39.70
2019-05-13T18:42:02.175Z,40.00
2019-05-13T18:44:31.722Z,40.60
2019-05-13T18:47:01.532Z,40.30
2019-05-13T18:49:31.816Z,40.60
2019-05-13T18:52:00.984Z,40.50
2019-05-13T18:54:31.577Z,40.80
2019-05-13T18:57:01.615Z,40.80
2019-05-13T18:59:32.178Z,40.90
2019-05-13T19:02:01.667Z,40.90
2019-05-13T19:04:31.337Z,41.00
2019-05-13T19:07:02.361Z,41.10
2019-05-13T19:09:31.190Z,41.20
2019-05-13T19:12:01.410Z,41.40
2019-05-13T19:14:31.784Z,41.70
2019-05-13T19:17:00.875Z,41.70
2019-05-13T19:19:31.696Z,41.80
2019-05-13T19:22:02.107Z,42.00
2019-05-13T19:24:31.218Z,42.20
2019-05-13T19:27:01.733Z,43.00
2019-05-13T19:29:33.844Z,42.30
2019-05-13T19:32:02.654Z,42.40
2019-05-13T19:34:32.549Z,42.60
2019-05-13T19:37:04.427Z,42.30
2019-05-13T19:39:33.378Z,42.80
2019-05-13T19:42:02.258Z,42.70
2019-05-13T19:44:34.355Z,43.00
2019-05-13T19:47:05.922Z,42.90
2019-05-13T19:49:37.296Z,43.00
2019-05-13T19:52:05.275Z,43.10
2019-05-13T19:54:34.144Z,43.10
2019-05-13T19:57:02.894Z,42.90
2019-05-13T19:59:32.310Z,43.10
2019-05-13T20:02:01.572Z,43.00
2019-05-13T20:04:31.295Z,42.80
2019-05-13T20:07:00.321Z,43.00
2019-05-13T20:09:32.026Z,43.20
2019-05-13T20:12:01.828Z,43.10
2019-05-13T20:14:30.178Z,43.10
2019-05-13T20:16:59.018Z,43.20
2019-05-13T20:19:27.807Z,43.00
2019-05-13T20:21:56.560Z,42.80
2019-05-13T20:24:25.338Z,42.80
2019-05-13T20:26:54.132Z,42.80
2019-05-13T20:29:23.080Z,42.70
2019-05-13T20:31:51.966Z,42.80
2019-05-13T20:34:22.155Z,42.80
2019-05-13T20:36:51.591Z,42.70
2019-05-13T20:39:22.455Z,42.60
2019-05-13T20:41:55.545Z,42.60
2019-05-13T20:44:22.089Z,42.70
2019-05-13T20:46:51.824Z,42.60
2019-05-13T20:49:21.833Z,42.50
2019-05-13T20:51:51.657Z,42.50
2019-05-13T20:54:22.021Z,42.70
2019-05-13T20:56:51.759Z,42.60
2019-05-13T20:59:21.979Z,43.40
2019-05-13T21:01:51.174Z,43.20
2019-05-13T21:04:21.506Z,42.90
2019-05-13T21:06:51.626Z,43.20
2019-05-13T21:09:20.642Z,43.10
2019-05-13T21:11:51.347Z,43.20
2019-05-13T21:14:21.556Z,43.20
2019-05-13T21:16:53.433Z,43.40
2019-05-13T21:19:22.043Z,43.50
2019-05-13T21:21:51.143Z,43.60
2019-05-13T21:24:21.331Z,43.60
2019-05-13T21:26:51.205Z,43.80
2019-05-13T21:29:21.635Z,44.00
2019-05-13T21:31:52.858Z,44.10
2019-05-13T21:34:21.197Z,44.20
2019-05-13T21:36:51.721Z,44.20
2019-05-13T21:39:21.433Z,44.40
2019-05-13T21:41:51.923Z,44.60
2019-05-13T21:44:20.783Z,44.80
2019-05-13T21:46:51.507Z,44.80
2019-05-13T21:49:21.294Z,44.90
2019-05-13T21:51:52.127Z,45.20
2019-05-13T21:54:20.972Z,45.40
2019-05-13T21:56:51.560Z,45.30
2019-05-13T21:59:23.025Z,45.40
2019-05-13T22:01:52.248Z,45.80
2019-05-13T22:04:21.581Z,45.70
2019-05-13T22:06:50.711Z,46.00
2019-05-13T22:09:19.464Z,45.70
2019-05-13T22:11:48.356Z,46.30
2019-05-13T22:14:17.166Z,46.30
2019-05-13T22:16:45.956Z,46.70
2019-05-13T22:19:17.791Z,46.80
2019-05-13T22:21:46.940Z,46.90
2019-05-13T22:24:15.784Z,46.90
2019-05-13T22:26:44.741Z,46.90
2019-05-13T22:29:13.705Z,47.40
2019-05-13T22:31:43.203Z,47.70
2019-05-13T22:34:12.270Z,47.90
2019-05-13T22:36:41.187Z,48.10
2019-05-13T22:39:11.523Z,48.40
2019-05-13T22:41:42.096Z,48.50
2019-05-13T22:44:11.811Z,48.80
2019-05-13T22:46:41.442Z,49.20
2019-05-13T22:49:11.608Z,49.50
2019-05-13T22:51:41.200Z,49.60
2019-05-13T22:54:11.957Z,49.80
2019-05-13T22:56:41.332Z,49.90
2019-05-13T22:59:12.309Z,50.70
2019-05-13T23:01:41.884Z,50.50
2019-05-13T23:04:11.513Z,50.50
2019-05-13T23:06:40.651Z,50.70
2019-05-13T23:09:09.377Z,51.00
2019-05-13T23:11:38.261Z,51.10
2019-05-13T23:14:10.115Z,51.60
2019-05-13T23:16:37.554Z,51.60
2019-05-13T23:19:06.386Z,51.70
2019-05-13T23:21:35.314Z,51.80
2019-05-13T23:24:04.271Z,51.90
2019-05-13T23:26:33.078Z,52.10
2019-05-13T23:29:01.863Z,52.10
2019-05-13T23:31:30.596Z,52.30
2019-05-13T23:34:01.279Z,52.40
2019-05-13T23:36:31.591Z,52.40
2019-05-13T23:39:01.020Z,53.30
2019-05-13T23:41:29.958Z,52.90
2019-05-13T23:43:58.704Z,53.00
2019-05-13T23:46:27.466Z,53.00
2019-05-13T23:48:56.237Z,53.10
2019-05-13T23:51:25.070Z,53.10
2019-05-13T23:53:53.922Z,53.20
2019-05-13T23:56:22.669Z,54.10
2019-05-13T23:58:51.929Z,53.70
